Time;durP1;ratioP1;P1;durP2;ratioP2;P2;SDS_P1;SDS_P2;PMS_P1;PMS_P2;Temp;Humidity;BMP_temperature;BMP_pressure;BME280_temperature;BME280_humidity;BME280_pressure;Samples;Min_cycle;Max_cycle;Signal;HPM_P1;HPM_P2
2022/07/18 00:01:02;;;;;;;;;;;;;;;18.05;54.70;95910.63;5134696;27;965;-49
2022/07/18 00:03:28;;;;;;;;;;;;;;;17.97;55.82;95907.19;5134459;27;1040;-49
2022/07/18 00:05:54;;;;;;;;;;;;;;;17.80;56.60;95904.66;5134308;27;1909;-49
2022/07/18 00:08:20;;;;;;;;;;;;;;;17.72;57.34;95905.59;5134281;27;984;-49
2022/07/18 00:10:46;;;;;;;;;;;;;;;17.44;59.13;95913.50;5134441;27;977;-49
2022/07/18 00:13:12;;;;;;;;;;;;;;;17.09;59.58;95924.00;5134087;27;1021;-49
2022/07/18 00:15:38;;;;;;;;;;;;;;;17.03;59.54;95915.75;5133732;27;1032;-49
2022/07/18 00:18:04;;;;;;;;;;;;;;;17.02;59.72;95914.94;5133859;27;1045;-49
2022/07/18 00:20:30;;;;;;;;;;;;;;;17.14;59.25;95918.03;5134385;27;962;-49
2022/07/18 00:22:56;;;;;;;;;;;;;;;17.02;59.74;95906.84;5134133;27;1056;-49
2022/07/18 00:25:22;;;;;;;;;;;;;;;16.96;60.88;95911.09;5134071;27;1910;-49
2022/07/18 00:27:48;;;;;;;;;;;;;;;16.88;60.70;95916.56;5133771;27;1174;-49
2022/07/18 00:30:14;;;;;;;;;;;;;;;16.84;60.80;95917.09;5134069;28;1005;-49
2022/07/18 00:32:40;;;;;;;;;;;;;;;16.80;60.92;95913.91;5134227;28;1020;-49
2022/07/18 00:35:07;;;;;;;;;;;;;;;16.82;61.11;95911.88;5133882;28;1215;-49
2022/07/18 00:37:33;;;;;;;;;;;;;;;16.80;61.23;95916.59;5134069;28;1031;-49
2022/07/18 00:39:59;;;;;;;;;;;;;;;16.83;61.29;95918.13;5134091;28;1075;-49
2022/07/18 00:42:25;;;;;;;;;;;;;;;16.83;60.69;95910.88;5132701;28;1153;-49
2022/07/18 00:44:55;;;;;;;;;;;;;;;16.75;61.71;95908.19;5113509;28;1079;-49
2022/07/18 00:47:21;;;;;;;;;;;;;;;16.76;61.35;95912.59;5113145;28;1949;-49
2022/07/18 00:49:47;;;;;;;;;;;;;;;16.92;61.05;95917.03;5113604;28;1037;-49
2022/07/18 00:52:13;;;;;;;;;;;;;;;16.67;61.15;95905.56;5113245;28;1033;-49
2022/07/18 00:54:39;;;;;;;;;;;;;;;16.31;61.85;95916.94;5113329;28;979;-49
2022/07/18 00:57:06;;;;;;;;;;;;;;;16.45;60.81;95924.28;5113520;28;949;-49
2022/07/18 01:02:16;;;;;;;;;;;;;;;16.60;60.01;95924.34;5133852;28;1040;-49
2022/07/18 01:04:42;;;;;;;;;;;;;;;16.58;60.05;95921.84;5133730;28;956;-49
2022/07/18 01:07:09;;;;;;;;;;;;;;;16.63;60.08;95923.16;5133673;28;1984;-49
2022/07/18 01:09:35;;;;;;;;;;;;;;;16.38;60.34;95928.72;5133639;28;965;-49
2022/07/18 01:12:01;;;;;;;;;;;;;;;16.28;60.86;95933.50;5133701;28;1012;-49
2022/07/18 01:14:28;;;;;;;;;;;;;;;16.07;60.15;95931.41;5133778;28;952;-49
2022/07/18 01:16:54;;;;;;;;;;;;;;;16.24;60.24;95932.16;5133858;28;999;-49
2022/07/18 01:19:20;;;;;;;;;;;;;;;16.23;60.48;95930.50;5133491;28;1027;-49
2022/07/18 01:21:45;;;;;;;;;;;;;;;16.26;60.86;95930.97;5133695;28;1044;-49
2022/07/18 01:24:11;;;;;;;;;;;;;;;16.23;60.83;95934.03;5133406;28;1028;-49
2022/07/18 01:26:37;;;;;;;;;;;;;;;16.12;61.46;95926.31;5133572;27;1910;-49
2022/07/18 01:29:03;;;;;;;;;;;;;;;16.14;61.92;95927.84;5136776;27;1044;-49
2022/07/18 01:31:33;;;;;;;;;;;;;;;16.00;62.47;95925.88;5137572;27;1014;-49
2022/07/18 01:33:59;;;;;;;;;;;;;;;15.90;62.19;95926.09;5137180;27;1068;-49
2022/07/18 01:36:25;;;;;;;;;;;;;;;15.68;62.97;95927.66;5137321;27;976;-49
2022/07/18 01:38:51;;;;;;;;;;;;;;;15.65;62.53;95927.16;5137363;27;1045;-49
2022/07/18 01:41:17;;;;;;;;;;;;;;;15.99;60.75;95924.19;5137096;27;1016;-49
2022/07/18 01:43:43;;;;;;;;;;;;;;;16.23;59.79;95934.03;5136900;27;1149;-49
2022/07/18 01:46:10;;;;;;;;;;;;;;;16.00;60.45;95928.59;5137091;27;1901;-49
2022/07/18 01:48:40;;;;;;;;;;;;;;;15.68;62.75;95933.06;5137002;27;1103;-49
2022/07/18 01:51:09;;;;;;;;;;;;;;;15.22;63.70;95922.06;5136944;27;961;-49
2022/07/18 01:53:39;;;;;;;;;;;;;;;15.17;62.93;95924.41;5136771;27;1036;-49
2022/07/18 01:56:05;;;;;;;;;;;;;;;15.45;61.82;95915.94;5136866;27;1047;-48
2022/07/18 01:58:31;;;;;;;;;;;;;;;15.62;61.52;95926.50;5136521;27;1265;-48
2022/07/18 02:00:58;;;;;;;;;;;;;;;15.45;61.74;95924.88;5136953;27;965;-47
2022/07/18 02:03:24;;;;;;;;;;;;;;;15.19;63.72;95927.78;5136608;27;980;-48
2022/07/18 02:05:50;;;;;;;;;;;;;;;15.07;64.53;95938.06;5136385;27;1898;-47
2022/07/18 02:08:16;;;;;;;;;;;;;;;15.06;64.30;95931.00;5136518;27;1008;-48
2022/07/18 02:10:42;;;;;;;;;;;;;;;15.34;63.98;95930.63;5136828;27;960;-48
2022/07/18 02:13:08;;;;;;;;;;;;;;;15.20;64.33;95930.31;5136687;27;1037;-48
2022/07/18 02:15:34;;;;;;;;;;;;;;;15.13;64.54;95942.78;5136482;27;979;-47
2022/07/18 02:18:00;;;;;;;;;;;;;;;15.15;64.46;95931.84;5136512;27;1014;-48
2022/07/18 02:20:26;;;;;;;;;;;;;;;15.03;65.22;95934.03;5136236;27;1027;-47
2022/07/18 02:22:52;;;;;;;;;;;;;;;14.97;65.37;95937.41;5136724;27;938;-48
2022/07/18 02:25:18;;;;;;;;;;;;;;;14.90;65.61;95939.94;5136125;27;1029;-47
2022/07/18 02:27:44;;;;;;;;;;;;;;;14.87;65.38;95937.56;5136444;27;1913;-47
2022/07/18 02:30:10;;;;;;;;;;;;;;;14.87;65.50;95944.81;5136056;27;1091;-48
2022/07/18 02:32:37;;;;;;;;;;;;;;;14.76;65.67;95936.06;5136398;27;987;-48
2022/07/18 02:35:04;;;;;;;;;;;;;;;14.58;65.11;95948.84;5135696;27;1028;-48
2022/07/18 02:37:30;;;;;;;;;;;;;;;14.36;66.07;95951.13;5136396;27;1049;-48
2022/07/18 02:39:56;;;;;;;;;;;;;;;14.34;66.32;95942.38;5134884;27;1060;-48
2022/07/18 02:42:22;;;;;;;;;;;;;;;14.28;66.39;95951.09;5135199;27;1305;-47
2022/07/18 02:44:48;;;;;;;;;;;;;;;14.33;66.10;95942.53;5115250;28;925;-48
2022/07/18 02:47:14;;;;;;;;;;;;;;;14.19;66.59;95947.56;5115253;28;1905;-48
2022/07/18 02:49:40;;;;;;;;;;;;;;;14.16;66.76;95947.88;5115144;28;1012;-48
2022/07/18 02:52:08;;;;;;;;;;;;;;;14.01;66.45;95954.88;5115195;28;1063;-47
2022/07/18 02:54:34;;;;;;;;;;;;;;;14.29;65.36;95951.97;5115073;28;1024;-48
2022/07/18 02:57:01;;;;;;;;;;;;;;;14.36;65.47;95953.81;5115075;28;1111;-48
2022/07/18 02:59:27;;;;;;;;;;;;;;;14.47;65.02;95954.50;5129701;27;1253;-48
2022/07/18 03:01:53;;;;;;;;;;;;;;;14.38;65.38;95956.31;5135501;27;1064;-48
2022/07/18 03:04:20;;;;;;;;;;;;;;;14.20;66.27;95951.09;5135149;27;1060;-48
2022/07/18 03:06:46;;;;;;;;;;;;;;;14.07;66.45;95956.91;5135677;27;1998;-48
2022/07/18 03:09:12;;;;;;;;;;;;;;;14.19;66.05;95962.84;5135571;27;1118;-48
2022/07/18 03:11:39;;;;;;;;;;;;;;;14.20;65.73;95967.22;5135444;27;1039;-48
2022/07/18 03:14:05;;;;;;;;;;;;;;;13.94;66.57;95969.97;5135498;27;1052;-48
2022/07/18 03:16:31;;;;;;;;;;;;;;;14.02;66.98;95970.03;5135253;27;994;-47
2022/07/18 03:18:57;;;;;;;;;;;;;;;14.21;66.25;95968.91;5135251;27;1020;-48
2022/07/18 03:21:23;;;;;;;;;;;;;;;14.20;65.55;95972.59;5135270;27;1035;-48
2022/07/18 03:23:49;;;;;;;;;;;;;;;13.98;66.37;95974.03;5135161;27;2070;-48
2022/07/18 03:26:15;;;;;;;;;;;;;;;14.02;66.97;95968.19;5135030;27;1914;-48
2022/07/18 03:28:41;;;;;;;;;;;;;;;13.91;66.56;95959.56;5135312;27;1043;-48
2022/07/18 03:31:07;;;;;;;;;;;;;;;13.68;67.31;95965.50;5134898;27;992;-48
2022/07/18 03:33:33;;;;;;;;;;;;;;;13.71;67.43;95965.16;5135057;27;945;-47
2022/07/18 03:35:59;;;;;;;;;;;;;;;13.75;67.49;95960.31;5134816;27;1035;-48
2022/07/18 03:38:25;;;;;;;;;;;;;;;13.86;66.81;95958.19;5135165;27;972;-48
2022/07/18 03:40:51;;;;;;;;;;;;;;;13.78;67.41;95966.22;5134700;27;1024;-49
2022/07/18 03:43:17;;;;;;;;;;;;;;;13.73;66.71;95962.34;5134622;27;1204;-50
2022/07/18 03:45:43;;;;;;;;;;;;;;;13.81;67.02;95971.28;5134679;27;1917;-49
2022/07/18 03:48:09;;;;;;;;;;;;;;;14.04;65.87;95965.34;5134748;27;948;-50
2022/07/18 03:50:35;;;;;;;;;;;;;;;14.30;65.34;95969.75;5134305;27;1071;-50
2022/07/18 03:53:01;;;;;;;;;;;;;;;14.44;65.88;95969.13;5134855;27;991;-49
2022/07/18 03:55:27;;;;;;;;;;;;;;;14.41;65.31;95962.22;5134853;27;984;-49
2022/07/18 03:57:53;;;;;;;;;;;;;;;14.57;65.27;95955.22;5134421;27;1246;-49
2022/07/18 04:00:19;;;;;;;;;;;;;;;14.48;64.99;95957.03;5134313;27;1300;-49
2022/07/18 04:02:46;;;;;;;;;;;;;;;14.50;65.58;95970.31;5134492;27;968;-49
2022/07/18 04:05:13;;;;;;;;;;;;;;;14.64;65.42;95969.69;5133992;27;1883;-49
2022/07/18 04:07:39;;;;;;;;;;;;;;;14.80;65.69;95974.28;5134638;27;1984;-49
2022/07/18 04:10:06;;;;;;;;;;;;;;;14.62;65.42;95974.41;5134334;27;1847;-50
2022/07/18 04:12:32;;;;;;;;;;;;;;;14.74;64.81;95966.84;5134362;27;1008;-49
2022/07/18 04:14:58;;;;;;;;;;;;;;;15.00;65.82;95972.91;5134369;27;1008;-49
2022/07/18 04:17:24;;;;;;;;;;;;;;;15.04;63.71;95970.72;5134097;27;1027;-49
2022/07/18 04:19:51;;;;;;;;;;;;;;;15.32;63.05;95976.59;5134309;27;1023;-49
2022/07/18 04:22:17;;;;;;;;;;;;;;;15.65;62.58;95971.16;5133952;27;1091;-49
2022/07/18 04:24:43;;;;;;;;;;;;;;;15.57;64.53;95979.25;5134252;27;1040;-49
2022/07/18 04:27:09;;;;;;;;;;;;;;;15.70;62.60;95976.84;5133999;27;1910;-49
2022/07/18 04:29:37;;;;;;;;;;;;;;;15.97;62.86;95975.63;5134229;27;965;-50
2022/07/18 04:32:03;;;;;;;;;;;;;;;16.20;60.69;95982.94;5133912;28;942;-49
2022/07/18 04:34:29;;;;;;;;;;;;;;;16.44;59.08;95978.44;5134178;28;977;-50
2022/07/18 04:36:55;;;;;;;;;;;;;;;16.55;62.13;95983.44;5134103;28;1001;-49
2022/07/18 04:39:21;;;;;;;;;;;;;;;16.50;61.45;95992.06;5134018;28;1075;-50
2022/07/18 04:41:47;;;;;;;;;;;;;;;16.83;59.63;95988.34;5134039;28;967;-50
2022/07/18 04:44:13;;;;;;;;;;;;;;;17.09;56.07;95982.56;5117546;28;1161;-50
2022/07/18 04:46:39;;;;;;;;;;;;;;;17.27;57.00;95974.16;5113247;28;1909;-50
2022/07/18 04:49:05;;;;;;;;;;;;;;;17.52;56.85;95985.56;5113393;28;958;-49
2022/07/18 04:51:32;;;;;;;;;;;;;;;17.71;57.37;95982.31;5113489;28;1055;-50
2022/07/18 04:53:58;;;;;;;;;;;;;;;17.92;56.14;95975.38;5113722;28;1034;-49
2022/07/18 04:56:24;;;;;;;;;;;;;;;17.95;55.31;95975.00;5113149;28;1988;-49
2022/07/18 04:58:50;;;;;;;;;;;;;;;17.90;54.95;95972.84;5123046;28;1275;-49
2022/07/18 05:01:16;;;;;;;;;;;;;;;18.04;54.81;95971.19;5115456;28;1053;-49
2022/07/18 05:03:42;;;;;;;;;;;;;;;18.26;53.99;95976.66;5136712;27;1075;-50
2022/07/18 05:06:08;;;;;;;;;;;;;;;18.44;53.32;95979.81;5137624;27;2000;-49
2022/07/18 05:08:34;;;;;;;;;;;;;;;18.59;53.39;95976.22;5138080;27;1028;-49
2022/07/18 05:11:00;;;;;;;;;;;;;;;18.78;52.87;95967.50;5137773;27;973;-49
2022/07/18 05:13:26;;;;;;;;;;;;;;;18.87;52.77;95970.91;5137708;27;1984;-49
2022/07/18 05:15:52;;;;;;;;;;;;;;;19.07;51.17;95961.13;5137829;27;1027;-49
2022/07/18 05:18:18;;;;;;;;;;;;;;;19.43;50.27;95970.19;5137352;27;1864;-49
2022/07/18 05:20:44;;;;;;;;;;;;;;;19.82;51.76;95971.53;5137618;27;1028;-49
2022/07/18 05:23:13;;;;;;;;;;;;;;;20.23;49.44;95968.00;5137482;27;1009;-49
2022/07/18 05:25:39;;;;;;;;;;;;;;;20.73;46.62;95986.81;5137536;27;1909;-49
2022/07/18 05:28:05;;;;;;;;;;;;;;;21.28;45.38;95975.84;5137230;27;1205;-49
2022/07/18 05:30:31;;;;;;;;;;;;;;;21.81;44.49;95984.03;5137484;27;988;-50
2022/07/18 05:32:57;;;;;;;;;;;;;;;21.73;45.12;95982.38;5137178;27;1035;-49
2022/07/18 05:35:23;;;;;;;;;;;;;;;21.62;44.02;95977.56;5137292;27;1036;-50
2022/07/18 05:37:49;;;;;;;;;;;;;;;21.84;42.76;95975.44;5137151;27;1028;-49
2022/07/18 05:40:16;;;;;;;;;;;;;;;21.75;44.64;95965.81;5137113;27;1076;-49
2022/07/18 05:42:42;;;;;;;;;;;;;;;21.47;44.65;95977.75;5137044;27;1157;-49
2022/07/18 05:45:09;;;;;;;;;;;;;;;21.21;45.62;95973.16;5137156;27;956;-49
2022/07/18 05:47:35;;;;;;;;;;;;;;;21.33;44.66;95967.91;5136828;27;1897;-49
2022/07/18 05:50:02;;;;;;;;;;;;;;;21.70;46.02;95968.34;5137270;27;1037;-49
2022/07/18 05:52:28;;;;;;;;;;;;;;;21.59;45.21;95967.94;5137094;27;1023;-49
2022/07/18 05:54:54;;;;;;;;;;;;;;;21.63;46.70;95979.25;5137280;27;929;-49
2022/07/18 05:57:19;;;;;;;;;;;;;;;21.52;47.23;95972.53;5136793;27;1173;-49
2022/07/18 05:59:46;;;;;;;;;;;;;;;21.59;45.54;95967.94;5137209;27;1107;-49
2022/07/18 06:02:12;;;;;;;;;;;;;;;21.65;46.06;95955.38;5136530;27;1003;-49
2022/07/18 06:04:38;;;;;;;;;;;;;;;21.73;46.36;95951.59;5136818;27;1052;-50
2022/07/18 06:07:04;;;;;;;;;;;;;;;21.77;46.39;95947.41;5136432;27;1905;-49
2022/07/18 06:09:30;;;;;;;;;;;;;;;21.89;45.86;95951.13;5136853;27;1044;-49
2022/07/18 06:11:58;;;;;;;;;;;;;;;22.21;45.47;95945.81;5136607;27;948;-49
2022/07/18 06:14:24;;;;;;;;;;;;;;;22.45;43.68;95947.03;5136386;27;1107;-49
2022/07/18 06:16:50;;;;;;;;;;;;;;;22.69;42.30;95953.63;5136485;27;988;-49
2022/07/18 06:19:16;;;;;;;;;;;;;;;22.94;41.90;95944.66;5136505;27;946;-49
2022/07/18 06:21:42;;;;;;;;;;;;;;;23.08;41.31;95953.63;5136523;27;1090;-49
2022/07/18 06:24:08;;;;;;;;;;;;;;;23.24;43.44;95947.66;5136330;27;994;-50
2022/07/18 06:26:34;;;;;;;;;;;;;;;23.32;43.97;95949.25;5136406;27;1983;-49
2022/07/18 06:29:00;;;;;;;;;;;;;;;23.21;44.35;95948.06;5136165;27;1027;-49
2022/07/18 06:31:26;;;;;;;;;;;;;;;23.15;44.66;95957.16;5136263;27;1036;-49
2022/07/18 06:33:52;;;;;;;;;;;;;;;23.11;44.81;95943.13;5136124;27;1075;-50
2022/07/18 06:36:18;;;;;;;;;;;;;;;23.09;45.21;95945.22;5136125;27;1003;-50
2022/07/18 06:38:44;;;;;;;;;;;;;;;23.21;45.77;95934.44;5135926;27;1251;-49
2022/07/18 06:41:10;;;;;;;;;;;;;;;23.13;44.69;95929.25;5136168;27;1046;-49
2022/07/18 06:43:37;;;;;;;;;;;;;;;23.26;45.38;95931.03;5124568;27;1153;-50
2022/07/18 06:46:03;;;;;;;;;;;;;;;23.43;44.96;95929.44;5115222;28;1984;-49
2022/07/18 06:48:32;;;;;;;;;;;;;;;23.45;42.76;95926.47;5115575;28;1024;-49
2022/07/18 06:50:59;;;;;;;;;;;;;;;23.36;42.94;95913.13;5115355;28;996;-49
2022/07/18 06:53:25;;;;;;;;;;;;;;;23.54;42.21;95920.53;5115098;28;1017;-49
2022/07/18 06:55:51;;;;;;;;;;;;;;;23.81;40.98;95914.84;5115338;28;1024;-50
2022/07/18 06:58:17;;;;;;;;;;;;;;;23.82;40.37;95916.50;5119929;27;1254;-50
2022/07/18 07:00:43;;;;;;;;;;;;;;;24.01;41.20;95913.78;5135641;27;1020;-49
2022/07/18 07:03:09;;;;;;;;;;;;;;;24.12;38.96;95911.13;5135597;27;1001;-50
2022/07/18 07:05:35;;;;;;;;;;;;;;;24.25;39.06;95912.03;5135331;27;1909;-49
2022/07/18 07:08:01;;;;;;;;;;;;;;;24.32;35.75;95912.78;5135506;27;1044;-49
2022/07/18 07:10:27;;;;;;;;;;;;;;;24.34;35.07;95913.41;5135503;27;1036;-50
2022/07/18 07:12:53;;;;;;;;;;;;;;;24.44;36.02;95907.41;5135323;27;1007;-49
2022/07/18 07:15:21;;;;;;;;;;;;;;;24.58;34.79;95911.63;5135311;27;966;-50
2022/07/18 07:17:47;;;;;;;;;;;;;;;24.59;35.20;95902.38;5135539;27;1095;-49
2022/07/18 07:20:13;;;;;;;;;;;;;;;24.65;35.63;95914.28;5135113;27;1115;-49
2022/07/18 07:22:46;;;;;;;;;;;;;;;24.55;34.87;95909.38;5135365;27;1060;-51
2022/07/18 07:25:13;;;;;;;;;;;;;;;24.75;34.25;95909.91;5134712;27;992;-50
2022/07/18 07:27:39;;;;;;;;;;;;;;;24.96;33.88;95910.47;5135055;27;1996;-50
2022/07/18 07:30:05;;;;;;;;;;;;;;;25.00;33.16;95917.13;5134786;27;960;-50
2022/07/18 07:32:38;;;;;;;;;;;;;;;25.07;32.29;95903.38;5135274;27;960;-49
2022/07/18 07:35:06;;;;;;;;;;;;;;;25.11;33.32;95907.31;5134612;27;1028;-50
2022/07/18 07:37:32;;;;;;;;;;;;;;;25.18;31.84;95901.75;5135088;27;1040;-50
2022/07/18 07:39:58;;;;;;;;;;;;;;;25.31;32.05;95901.56;5134840;27;1035;-50
2022/07/18 07:42:25;;;;;;;;;;;;;;;25.19;32.26;95895.19;5134722;27;1281;-50
2022/07/18 07:44:51;;;;;;;;;;;;;;;25.25;32.90;95899.75;5134866;27;1043;-51
2022/07/18 07:47:17;;;;;;;;;;;;;;;25.38;32.82;95896.78;5134791;27;1992;-51
2022/07/18 07:49:43;;;;;;;;;;;;;;;25.39;31.54;95894.91;5134787;27;1018;-51
2022/07/18 07:52:11;;;;;;;;;;;;;;;25.46;32.67;95893.72;5134659;27;1079;-50
2022/07/18 07:54:37;;;;;;;;;;;;;;;25.55;32.47;95885.16;5134490;27;1024;-50
2022/07/18 07:57:03;;;;;;;;;;;;;;;25.65;30.97;95891.69;5134546;27;1052;-50
2022/07/18 07:59:31;;;;;;;;;;;;;;;25.65;30.85;95883.50;5134301;27;1238;-51
2022/07/18 08:01:58;;;;;;;;;;;;;;;25.66;32.75;95887.88;5134568;27;964;-51
2022/07/18 08:04:25;;;;;;;;;;;;;;;25.76;31.28;95892.75;5134428;27;1037;-51
2022/07/18 08:06:51;;;;;;;;;;;;;;;25.81;32.21;95884.66;5134528;27;2009;-51
2022/07/18 08:09:17;;;;;;;;;;;;;;;25.98;32.48;95889.44;5134211;27;1028;-51
2022/07/18 08:11:43;;;;;;;;;;;;;;;26.17;32.07;95885.47;5134378;27;963;-51
2022/07/18 08:14:09;;;;;;;;;;;;;;;26.24;32.17;95880.69;5134380;27;961;-50
2022/07/18 08:16:35;;;;;;;;;;;;;;;26.09;31.98;95889.41;5134530;27;1028;-51
2022/07/18 08:19:01;;;;;;;;;;;;;;;25.88;30.15;95871.69;5134306;27;1348;-51
2022/07/18 08:21:27;;;;;;;;;;;;;;;25.84;32.12;95877.88;5134374;27;1045;-51
2022/07/18 08:23:53;;;;;;;;;;;;;;;26.08;32.01;95885.00;5134217;27;997;-51
2022/07/18 08:26:19;;;;;;;;;;;;;;;26.30;31.93;95876.97;5134040;27;1905;-51
2022/07/18 08:28:45;;;;;;;;;;;;;;;26.34;30.22;95871.84;5134150;27;1857;-51
2022/07/18 08:31:11;;;;;;;;;;;;;;;26.41;31.50;95866.25;5134151;27;1022;-51
2022/07/18 08:33:37;;;;;;;;;;;;;;;26.39;30.76;95876.59;5134301;28;1007;-51
2022/07/18 08:36:03;;;;;;;;;;;;;;;26.51;30.67;95869.16;5133670;28;1105;-51
2022/07/18 08:38:29;;;;;;;;;;;;;;;26.57;30.20;95867.34;5136882;27;1113;-51
2022/07/18 08:40:56;;;;;;;;;;;;;;;26.72;29.79;95866.84;5138214;27;1048;-51
2022/07/18 08:43:24;;;;;;;;;;;;;;;26.67;30.49;95862.09;5129281;27;1157;-51
2022/07/18 08:45:51;;;;;;;;;;;;;;;26.72;29.46;95867.69;5117764;28;1909;-51
2022/07/18 08:48:17;;;;;;;;;;;;;;;26.80;29.80;95866.44;5117829;28;1048;-51
2022/07/18 08:50:44;;;;;;;;;;;;;;;26.81;29.99;95860.72;5117623;28;979;-51
2022/07/18 08:53:10;;;;;;;;;;;;;;;26.78;31.43;95863.94;5117627;28;984;-51
2022/07/18 08:55:36;;;;;;;;;;;;;;;26.78;29.52;95854.88;5117378;28;1036;-51
2022/07/18 08:58:02;;;;;;;;;;;;;;;26.77;29.99;95853.22;5120301;27;1099;-51
2022/07/18 09:00:29;;;;;;;;;;;;;;;26.83;29.49;95858.56;5138103;27;987;-51
2022/07/18 09:02:59;;;;;;;;;;;;;;;26.97;30.27;95864.56;5138144;27;1040;-51
2022/07/18 09:05:25;;;;;;;;;;;;;;;27.00;29.03;95846.78;5137604;27;1083;-51
2022/07/18 09:07:51;;;;;;;;;;;;;;;26.94;29.62;95848.59;5137948;27;1897;-51
2022/07/18 09:10:17;;;;;;;;;;;;;;;26.96;28.75;95848.34;5137563;27;1067;-51
2022/07/18 09:12:55;;;;;;;;;;;;;;;26.96;30.66;95843.69;5138117;27;952;-51
2022/07/18 09:15:21;;;;;;;;;;;;;;;27.05;30.01;95839.47;5137734;27;1067;-51
2022/07/18 09:17:48;;;;;;;;;;;;;;;27.19;29.59;95841.88;5137858;27;957;-51
2022/07/18 09:20:15;;;;;;;;;;;;;;;27.33;30.99;95856.13;5137464;27;1033;-51
2022/07/18 09:22:43;;;;;;;;;;;;;;;27.50;30.53;95839.66;5137630;27;1056;-51
2022/07/18 09:25:11;;;;;;;;;;;;;;;27.53;28.92;95850.97;5137537;27;1032;-51
2022/07/18 09:27:39;;;;;;;;;;;;;;;27.46;29.50;95848.38;5137588;27;1915;-52
2022/07/18 09:30:24;;;;;;;;;;;;;;;27.35;28.70;95841.06;5137413;27;1007;-52
2022/07/18 09:32:51;;;;;;;;;;;;;;;27.47;29.32;95832.75;5137491;27;976;-52
2022/07/18 09:35:22;;;;;;;;;;;;;;;27.58;29.26;95837.28;5136860;27;1852;-51
2022/07/18 09:37:59;;;;;;;;;;;;;;;27.64;30.33;95847.28;5137564;27;1036;-51
2022/07/18 09:40:30;;;;;;;;;;;;;;;27.76;28.76;95835.38;5119054;27;1024;-51
2022/07/18 09:43:00;;;;;;;;;;;;;;;27.75;28.73;95840.00;5137333;27;1094;-51
2022/07/18 09:45:31;;;;;;;;;;;;;;;27.72;27.01;95834.22;5137101;27;1040;-50
2022/07/18 09:48:05;;;;;;;;;;;;;;;27.67;28.08;95836.88;5136727;27;1963;-51
2022/07/18 09:50:32;;;;;;;;;;;;;;;27.68;26.77;95825.66;5137184;27;957;-51
2022/07/18 09:53:06;;;;;;;;;;;;;;;27.73;27.39;95831.19;5137265;27;961;-51
2022/07/18 09:55:32;;;;;;;;;;;;;;;27.78;26.99;95824.97;5136822;27;1020;-51
2022/07/18 09:57:59;;;;;;;;;;;;;;;27.74;27.64;95827.38;5136918;27;1100;-51
2022/07/18 10:00:26;;;;;;;;;;;;;;;27.72;27.72;95825.97;5136954;27;1079;-51
2022/07/18 10:02:54;;;;;;;;;;;;;;;27.77;25.64;95820.53;5137088;27;1036;-51
2022/07/18 10:05:19;;;;;;;;;;;;;;;27.74;26.73;95821.06;5136736;27;1035;-51
2022/07/18 10:07:46;;;;;;;;;;;;;;;27.85;26.97;95817.38;5136542;27;1971;-51
2022/07/18 10:10:15;;;;;;;;;;;;;;;27.93;26.37;95813.38;5136724;27;1027;-51
2022/07/18 10:12:41;;;;;;;;;;;;;;;27.86;25.51;95816.25;5136603;27;995;-51
2022/07/18 10:15:08;;;;;;;;;;;;;;;27.88;25.96;95825.09;5136554;27;1221;-51
2022/07/18 10:17:34;;;;;;;;;;;;;;;27.90;26.05;95822.13;5136681;27;1016;-51
2022/07/18 10:20:06;;;;;;;;;;;;;;;27.81;24.85;95810.69;5136614;27;1037;-51
2022/07/18 10:22:38;;;;;;;;;;;;;;;27.77;27.00;95815.88;5136334;27;1863;-51
2022/07/18 10:25:05;;;;;;;;;;;;;;;27.85;25.94;95814.63;5136385;27;1020;-51
2022/07/18 10:27:51;;;;;;;;;;;;;;;27.94;25.85;95806.78;5136126;27;1906;-51
2022/07/18 10:30:28;;;;;;;;;;;;;;;28.09;25.04;95809.72;5122033;27;1721;-51
2022/07/18 10:32:54;;;;;;;;;;;;;;;28.02;24.75;95796.19;5136291;27;957;-51
2022/07/18 10:35:40;;;;;;;;;;;;;;;28.01;24.75;95790.94;5136067;27;1000;-51
2022/07/18 10:38:21;;;;;;;;;;;;;;;28.03;25.51;95800.56;5135765;27;1182;-51
2022/07/18 10:41:06;;;;;;;;;;;;;;;28.17;27.27;95797.44;5136204;27;1098;-51
2022/07/18 10:43:33;;;;;;;;;;;;;;;28.27;25.31;95797.56;5125430;27;1186;-51
2022/07/18 10:46:00;;;;;;;;;;;;;;;28.21;25.23;95795.84;5115504;28;1913;-50
2022/07/18 10:48:32;;;;;;;;;;;;;;;28.21;25.06;95804.06;5115824;28;961;-50
2022/07/18 10:51:01;;;;;;;;;;;;;;;28.21;25.63;95787.59;5115628;28;953;-51
2022/07/18 10:53:46;;;;;;;;;;;;;;;28.22;25.23;95781.00;5115180;28;1072;-51
2022/07/18 10:56:12;;;;;;;;;;;;;;;28.28;24.92;95790.16;5115273;28;973;-51
2022/07/18 10:58:39;;;;;;;;;;;;;;;28.31;24.55;95784.16;5123043;27;1287;-51
2022/07/18 11:01:10;;;;;;;;;;;;;;;28.32;24.35;95783.88;5134724;27;1958;-51
2022/07/18 11:03:36;;;;;;;;;;;;;;;28.27;24.57;95785.72;5135753;27;1017;-51
2022/07/18 11:06:02;;;;;;;;;;;;;;;28.19;24.48;95781.50;5135472;27;1918;-51
2022/07/18 11:08:31;;;;;;;;;;;;;;;28.24;25.13;95774.16;5135483;27;920;-51
2022/07/18 11:11:02;;;;;;;;;;;;;;;28.33;24.96;95777.28;5135669;27;965;-51
2022/07/18 11:13:36;;;;;;;;;;;;;;;28.34;23.62;95773.47;5135350;27;984;-51
2022/07/18 11:16:24;;;;;;;;;;;;;;;28.13;22.18;95779.81;5135573;27;960;-51
2022/07/18 11:18:51;;;;;;;;;;;;;;;28.02;24.25;95778.84;5135712;27;1028;-51
2022/07/18 11:21:17;;;;;;;;;;;;;;;28.08;23.30;95779.72;5117068;27;965;-50
2022/07/18 11:23:43;;;;;;;;;;;;;;;28.07;23.04;95770.66;5135186;27;1044;-51
2022/07/18 11:26:14;;;;;;;;;;;;;;;28.19;23.65;95765.88;5134970;27;1905;-51
2022/07/18 11:28:41;;;;;;;;;;;;;;;28.28;23.99;95774.47;5135260;27;1044;-51
2022/07/18 11:31:08;;;;;;;;;;;;;;;28.28;21.06;95763.47;5135269;27;1012;-51
2022/07/18 11:33:37;;;;;;;;;;;;;;;28.21;22.95;95763.69;5135072;27;1039;-51
2022/07/18 11:36:10;;;;;;;;;;;;;;;28.21;23.02;95762.84;5134507;27;1840;-51
2022/07/18 11:38:38;;;;;;;;;;;;;;;28.19;23.01;95768.63;5134766;27;1095;-50
2022/07/18 11:41:04;;;;;;;;;;;;;;;28.20;22.62;95762.03;5135073;27;958;-52
2022/07/18 11:43:31;;;;;;;;;;;;;;;28.24;23.43;95770.59;5134681;27;1149;-51
2022/07/18 11:46:00;;;;;;;;;;;;;;;28.32;22.49;95772.03;5134823;27;1914;-51
2022/07/18 11:48:26;;;;;;;;;;;;;;;28.42;22.40;95766.66;5134843;27;955;-51
2022/07/18 11:50:52;;;;;;;;;;;;;;;28.35;21.97;95763.28;5134903;27;957;-51
2022/07/18 11:53:18;;;;;;;;;;;;;;;28.39;22.08;95759.75;5134467;27;1047;-51
2022/07/18 11:55:45;;;;;;;;;;;;;;;28.43;22.73;95760.06;5134937;27;1068;-51
2022/07/18 12:01:33;;;;;;;;;;;;;;;28.42;23.00;95747.41;3857083;27;2350;-51
2022/07/18 12:03:59;;;;;;;;;;;;;;;28.51;23.68;95745.84;5134408;27;984;-51
2022/07/18 12:06:27;;;;;;;;;;;;;;;28.42;22.41;95744.66;5134702;27;1989;-51
2022/07/18 12:08:59;;;;;;;;;;;;;;;28.39;22.40;95745.19;5134500;27;1021;-51
2022/07/18 12:11:25;;;;;;;;;;;;;;;28.39;23.30;95743.25;5134510;27;1028;-51
2022/07/18 12:14:01;;;;;;;;;;;;;;;28.38;22.78;95740.75;5134384;27;1009;-51
2022/07/18 12:16:29;;;;;;;;;;;;;;;28.45;23.13;95740.56;5134372;27;1020;-51
2022/07/18 12:19:01;;;;;;;;;;;;;;;28.52;22.80;95733.78;5134518;27;1025;-52
2022/07/18 12:21:43;;;;;;;;;;;;;;;28.62;22.29;95741.28;5134525;27;1007;-51
2022/07/18 12:24:26;;;;;;;;;;;;;;;28.64;21.68;95738.28;5134138;27;1003;-51
2022/07/18 12:27:09;;;;;;;;;;;;;;;28.71;22.72;95736.97;5134197;27;1910;-51
2022/07/18 12:29:54;;;;;;;;;;;;;;;28.67;22.46;95738.59;5134289;27;1185;-51
2022/07/18 12:32:26;;;;;;;;;;;;;;;28.65;22.40;95735.28;5134154;27;1083;-51
2022/07/18 12:35:03;;;;;;;;;;;;;;;28.57;22.47;95735.75;5133857;27;988;-51
2022/07/18 12:37:30;;;;;;;;;;;;;;;28.55;23.50;95736.03;5134446;28;1041;-49
2022/07/18 12:39:57;;;;;;;;;;;;;;;28.50;22.46;95730.44;5134212;28;973;-49
2022/07/18 12:42:28;;;;;;;;;;;;;;;28.51;22.68;95728.50;5133200;28;1153;-48
2022/07/18 12:44:54;;;;;;;;;;;;;;;28.49;22.08;95727.94;5113522;28;1048;-49
2022/07/18 12:47:19;;;;;;;;;;;;;;;28.50;21.58;95727.69;5113386;28;1902;-49
2022/07/18 12:49:46;;;;;;;;;;;;;;;28.48;21.17;95738.13;5113248;28;1087;-48
2022/07/18 12:52:12;;;;;;;;;;;;;;;28.45;21.11;95724.06;5113403;28;1064;-48
2022/07/18 12:54:38;;;;;;;;;;;;;;;28.38;20.25;95735.25;5113425;28;1071;-49
2022/07/18 12:57:04;;;;;;;;;;;;;;;28.37;21.71;95728.09;5113485;28;1028;-48
2022/07/18 12:59:30;;;;;;;;;;;;;;;28.39;23.13;95720.44;5113244;28;1951;-48
2022/07/18 13:01:56;;;;;;;;;;;;;;;28.40;22.97;95725.66;5125254;27;1075;-48
2022/07/18 13:04:22;;;;;;;;;;;;;;;28.37;22.67;95725.34;5133440;28;1024;-48
2022/07/18 13:06:48;;;;;;;;;;;;;;;28.32;22.84;95725.31;5133837;28;1898;-48